createdAt,value
2022-07-29T00:00:51.753Z,1076.68
2022-07-29T00:01:51.816Z,1076.58
2022-07-29T00:02:51.787Z,1076.58
2022-07-29T00:03:51.814Z,1076.41
2022-07-29T00:04:51.764Z,1076.52
2022-07-29T00:05:51.767Z,1076.18
2022-07-29T00:06:51.766Z,1076.3
2022-07-29T00:07:51.773Z,1076.39
2022-07-29T00:08:51.793Z,1076.19
2022-07-29T00:09:52.588Z,1076.28
2022-07-29T00:10:51.791Z,1075.99
2022-07-29T00:11:51.774Z,1075.86
2022-07-29T00:12:51.775Z,1075.86
2022-07-29T00:13:51.816Z,1075.67
2022-07-29T00:14:51.779Z,1075.8
2022-07-29T00:15:51.782Z,1075.86
2022-07-29T00:16:51.881Z,1076.03
2022-07-29T00:17:51.786Z,1075.98
2022-07-29T00:18:51.812Z,1076.02
2022-07-29T00:19:51.819Z,1076.19
2022-07-29T00:20:51.796Z,1076.05
2022-07-29T00:21:51.790Z,1076.08
2022-07-29T00:22:51.797Z,1075.97
2022-07-29T00:23:51.818Z,1076.03
2022-07-29T00:24:51.797Z,1075.7
2022-07-29T00:25:51.802Z,1075.68
2022-07-29T00:26:51.808Z,1075.67
2022-07-29T00:27:51.806Z,1075.77
2022-07-29T00:28:51.838Z,1075.74
2022-07-29T00:29:54.898Z,1075.71
2022-07-29T00:30:51.811Z,1075.73
2022-07-29T00:31:51.922Z,1075.95
2022-07-29T00:32:51.812Z,1075.91
2022-07-29T00:33:51.842Z,1075.8
2022-07-29T00:34:51.821Z,1075.83
2022-07-29T00:35:51.819Z,1075.89
2022-07-29T00:36:51.824Z,1075.99
2022-07-29T00:37:51.820Z,1075.91
2022-07-29T00:38:51.846Z,1075.87
2022-07-29T00:39:51.829Z,1075.86
2022-07-29T00:40:52.893Z,1076.05
2022-07-29T00:41:51.830Z,1075.86
2022-07-29T00:42:51.829Z,1075.93
2022-07-29T00:43:51.865Z,1075.88
2022-07-29T00:44:51.834Z,1076.05
2022-07-29T00:45:51.836Z,1076.03
2022-07-29T00:46:51.915Z,1076.47
2022-07-29T00:47:51.842Z,1076.48
2022-07-29T00:48:51.915Z,1076.53
2022-07-29T00:49:51.847Z,1076.54
2022-07-29T00:50:51.845Z,1076.53
2022-07-29T00:51:51.848Z,1076.69
2022-07-29T00:52:51.854Z,1076.76
2022-07-29T00:53:51.876Z,1076.86
2022-07-29T00:54:51.851Z,1076.88
2022-07-29T00:55:52.431Z,1077.17
2022-07-29T00:56:51.854Z,1077.17
2022-07-29T00:57:51.855Z,1077.37
2022-07-29T00:58:51.884Z,1077.43
2022-07-29T00:59:51.868Z,1077.69
2022-07-29T01:00:51.917Z,1077.69
2022-07-29T01:01:51.991Z,1077.79
2022-07-29T01:02:51.876Z,1077.88
2022-07-29T01:03:51.895Z,1077.91
2022-07-29T01:04:51.871Z,1077.97
2022-07-29T01:05:52.103Z,1078.02
2022-07-29T01:06:51.872Z,1078.3
2022-07-29T01:07:51.877Z,1078.61
2022-07-29T01:08:51.930Z,1078.79
2022-07-29T01:09:51.878Z,1078.95
2022-07-29T01:10:51.882Z,1078.63
2022-07-29T01:11:51.883Z,1078.72
2022-07-29T01:12:54.683Z,1078.79
2022-07-29T01:13:51.925Z,1078.67
2022-07-29T01:14:51.891Z,1078.71
2022-07-29T01:15:51.953Z,1079
2022-07-29T01:16:51.893Z,1079.27
2022-07-29T01:17:52.896Z,1079.78
2022-07-29T01:18:51.923Z,1080
2022-07-29T01:19:51.896Z,1080.32
2022-07-29T01:20:51.900Z,1080.72
2022-07-29T01:21:51.904Z,1080.95
2022-07-29T01:22:51.903Z,1081.16
2022-07-29T01:23:53.393Z,1081.15
2022-07-29T01:24:51.914Z,1081.22
2022-07-29T01:25:53.295Z,1081.35
2022-07-29T01:26:51.910Z,1081.26
2022-07-29T01:27:51.911Z,1081.51
2022-07-29T01:28:51.941Z,1081.75
2022-07-29T01:29:51.916Z,1081.75
2022-07-29T01:30:51.918Z,1082.13
2022-07-29T01:31:58.901Z,1082.27
2022-07-29T01:32:51.924Z,1082.54
2022-07-29T01:33:51.944Z,1082.6
2022-07-29T01:34:54.748Z,1082.6
2022-07-29T01:35:51.928Z,1082.77
2022-07-29T01:36:51.933Z,1082.77
2022-07-29T01:37:51.936Z,1082.8
2022-07-29T01:38:51.931Z,1083.2
2022-07-29T01:39:51.934Z,1083.35
2022-07-29T01:40:51.941Z,1083.69
2022-07-29T01:41:51.940Z,1083.65
2022-07-29T01:42:51.940Z,1083.85
2022-07-29T01:43:51.941Z,1084.09
2022-07-29T01:44:51.946Z,1084.33
2022-07-29T01:45:51.948Z,1084.35
2022-07-29T01:46:52.074Z,1084.37
2022-07-29T01:47:51.953Z,1084.31
2022-07-29T01:48:52.028Z,1084.25
2022-07-29T01:49:51.958Z,1084.14
2022-07-29T01:50:51.958Z,1084.13
2022-07-29T01:51:51.957Z,1083.92
2022-07-29T01:52:51.958Z,1083.93
2022-07-29T01:53:51.963Z,1084.07
2022-07-29T01:54:51.960Z,1083.77
2022-07-29T01:55:51.966Z,1083.87
2022-07-29T01:56:51.970Z,1083.87
2022-07-29T01:57:51.966Z,1084.02
2022-07-29T01:58:51.969Z,1084.02
2022-07-29T01:59:51.969Z,1084.15
2022-07-29T02:00:51.976Z,1084.18
2022-07-29T02:01:54.445Z,1084.32
2022-07-29T02:02:51.975Z,1084.17
2022-07-29T02:03:51.979Z,1084.47
2022-07-29T02:04:52.028Z,1084.73
2022-07-29T02:05:51.984Z,1085.16
2022-07-29T02:06:51.991Z,1085.39
2022-07-29T02:07:51.993Z,1085.59
2022-07-29T02:08:51.988Z,1085.71
2022-07-29T02:09:51.995Z,1086.09
2022-07-29T02:10:51.992Z,1086.3
2022-07-29T02:11:51.995Z,1086.49
2022-07-29T02:12:52.000Z,1086.67
2022-07-29T02:13:51.997Z,1087.08
2022-07-29T02:14:51.999Z,1087.06
2022-07-29T02:15:52.025Z,1087.31
2022-07-29T02:16:52.010Z,1087.4
2022-07-29T02:17:52.008Z,1087.62
2022-07-29T02:18:52.003Z,1087.71
2022-07-29T02:19:52.011Z,1087.85
2022-07-29T02:20:52.009Z,1088.03
2022-07-29T02:21:52.012Z,1087.97
2022-07-29T02:22:52.015Z,1088
2022-07-29T02:23:52.025Z,1088.51
2022-07-29T02:24:52.020Z,1088.9
2022-07-29T02:25:52.019Z,1088.97
2022-07-29T02:26:52.021Z,1089.06
2022-07-29T02:27:52.020Z,1089.14
2022-07-29T02:28:52.025Z,1089.41
2022-07-29T02:29:52.027Z,1089.74
2022-07-29T02:30:52.083Z,1089.92
2022-07-29T02:31:52.031Z,1090.22
2022-07-29T02:32:52.032Z,1090.65
2022-07-29T02:33:52.032Z,1090.86
2022-07-29T02:34:52.034Z,1091.03
2022-07-29T02:35:52.037Z,1091.16
2022-07-29T02:36:52.037Z,1091.22
2022-07-29T02:37:52.038Z,1091.56
2022-07-29T02:38:52.072Z,1091.71
2022-07-29T02:39:52.044Z,1091.66
2022-07-29T02:40:52.050Z,1091.93
2022-07-29T02:41:52.049Z,1091.93
2022-07-29T02:42:52.063Z,1091.83
2022-07-29T02:43:52.058Z,1092.09
2022-07-29T02:44:52.051Z,1092.03
2022-07-29T02:45:52.152Z,1092.23
2022-07-29T02:46:52.163Z,1092.41
2022-07-29T02:47:52.055Z,1092.56
2022-07-29T02:48:52.103Z,1092.68
2022-07-29T02:49:52.062Z,1092.82
2022-07-29T02:50:52.074Z,1092.95
2022-07-29T02:51:52.067Z,1093.23
2022-07-29T02:52:52.071Z,1093.4
2022-07-29T02:53:52.066Z,1093.65
2022-07-29T02:54:52.067Z,1093.81
2022-07-29T02:55:52.072Z,1093.93
2022-07-29T02:56:54.840Z,1094.27
2022-07-29T02:57:54.246Z,1094.44
2022-07-29T02:58:52.081Z,1094.61
2022-07-29T02:59:52.079Z,1094.71
2022-07-29T03:00:52.098Z,1094.81
2022-07-29T03:01:52.142Z,1094.96
2022-07-29T03:02:52.086Z,1095.3
2022-07-29T03:03:52.087Z,1095.61
2022-07-29T03:04:52.144Z,1095.92
2022-07-29T03:05:52.090Z,1096.01
2022-07-29T03:06:52.092Z,1096.38
2022-07-29T03:07:53.161Z,1096.76
2022-07-29T03:08:52.094Z,1097.03
2022-07-29T03:09:52.099Z,1097.36
2022-07-29T03:10:52.121Z,1097.74
2022-07-29T03:11:52.108Z,1098.02
2022-07-29T03:12:52.108Z,1098.33
2022-07-29T03:13:52.106Z,1098.63
2022-07-29T03:14:52.143Z,1099.18
2022-07-29T03:15:52.161Z,1099.4
2022-07-29T03:16:52.124Z,1099.69
2022-07-29T03:17:52.113Z,1100.2
2022-07-29T03:18:52.114Z,1100.44
2022-07-29T03:19:52.141Z,1100.66
2022-07-29T03:20:52.119Z,1100.99
2022-07-29T03:21:52.124Z,1101.25
2022-07-29T03:22:52.119Z,1101.46
2022-07-29T03:23:52.125Z,1101.65
2022-07-29T03:24:52.145Z,1101.68
2022-07-29T03:25:52.129Z,1101.8
2022-07-29T03:26:52.131Z,1101.8
2022-07-29T03:27:52.157Z,1101.95
2022-07-29T03:28:52.134Z,1102.04
2022-07-29T03:29:52.157Z,1102.04
2022-07-29T03:30:52.183Z,1102.25
2022-07-29T03:31:52.140Z,1102.45
2022-07-29T03:32:52.500Z,1102.62
2022-07-29T03:33:52.143Z,1102.82
2022-07-29T03:34:52.200Z,1102.85
2022-07-29T03:35:52.143Z,1102.92
2022-07-29T03:36:52.146Z,1103.08
2022-07-29T03:37:52.150Z,1103.05
2022-07-29T03:38:52.152Z,1103.12
2022-07-29T03:39:53.515Z,1103.09
2022-07-29T03:40:52.156Z,1103.35
2022-07-29T03:41:52.156Z,1103.48
2022-07-29T03:42:52.164Z,1103.57
2022-07-29T03:43:52.159Z,1103.69
2022-07-29T03:44:52.160Z,1103.78
2022-07-29T03:45:52.161Z,1103.99
2022-07-29T03:46:52.212Z,1104.2
2022-07-29T03:47:54.823Z,1104.64
2022-07-29T03:48:52.237Z,1104.78
2022-07-29T03:49:52.172Z,1105.2
2022-07-29T03:50:53.426Z,1105.52
2022-07-29T03:51:52.176Z,1105.9
2022-07-29T03:52:52.177Z,1106.11
2022-07-29T03:53:52.175Z,1106.48
2022-07-29T03:54:52.190Z,1106.92
2022-07-29T03:55:52.193Z,1107.24
2022-07-29T03:56:52.187Z,1107.49
2022-07-29T03:57:52.190Z,1108.04
2022-07-29T03:58:52.188Z,1108.44
2022-07-29T03:59:52.190Z,1108.87
2022-07-29T04:00:52.206Z,1109.25
2022-07-29T04:01:55.042Z,1109.58
2022-07-29T04:02:52.192Z,1109.9
2022-07-29T04:03:55.276Z,1110.17
2022-07-29T04:04:52.196Z,1110.44
2022-07-29T04:05:52.202Z,1110.69
2022-07-29T04:06:54.930Z,1110.89
2022-07-29T04:07:52.271Z,1111.15
2022-07-29T04:08:52.207Z,1111.24
2022-07-29T04:09:52.206Z,1111.49
2022-07-29T04:10:52.215Z,1111.84
2022-07-29T04:11:57.192Z,1111.94
2022-07-29T04:12:54.985Z,1112.23
2022-07-29T04:13:52.215Z,1112.45
2022-07-29T04:14:52.215Z,1112.69
2022-07-29T04:15:52.282Z,1112.94
2022-07-29T04:16:52.217Z,1113.41
2022-07-29T04:17:52.225Z,1113.59
2022-07-29T04:18:52.220Z,1113.95
2022-07-29T04:19:52.225Z,1114.42
2022-07-29T04:20:52.227Z,1114.78
2022-07-29T04:21:52.234Z,1115.12
2022-07-29T04:22:52.228Z,1115.48
2022-07-29T04:23:53.237Z,1115.89
2022-07-29T04:24:52.234Z,1116.05
2022-07-29T04:25:52.234Z,1116.22
2022-07-29T04:26:52.234Z,1116.23
2022-07-29T04:27:52.247Z,1116.33
2022-07-29T04:28:52.247Z,1116.43
2022-07-29T04:29:56.438Z,1116.49
2022-07-29T04:30:52.284Z,1116.59
2022-07-29T04:31:52.258Z,1116.66
2022-07-29T04:32:52.250Z,1116.77
2022-07-29T04:33:52.253Z,1116.94
2022-07-29T04:34:52.264Z,1117.3
2022-07-29T04:35:52.427Z,1117.67
2022-07-29T04:36:52.255Z,1117.97
2022-07-29T04:37:52.260Z,1118.3
2022-07-29T04:38:52.288Z,1118.47
2022-07-29T04:39:52.262Z,1118.71
2022-07-29T04:40:52.292Z,1118.84
2022-07-29T04:41:52.440Z,1119.01
2022-07-29T04:42:52.268Z,1119.11
2022-07-29T04:43:52.270Z,1119.17
2022-07-29T04:44:52.272Z,1119.27
2022-07-29T04:45:52.409Z,1119.2
2022-07-29T04:46:52.278Z,1119.14
2022-07-29T04:47:52.276Z,1119.11
2022-07-29T04:48:52.354Z,1118.95
2022-07-29T04:49:52.282Z,1118.95
2022-07-29T04:50:52.305Z,1118.77
2022-07-29T04:51:52.285Z,1118.66
2022-07-29T04:52:52.288Z,1118.51
2022-07-29T04:53:52.284Z,1118.49
2022-07-29T04:54:52.288Z,1118.42
2022-07-29T04:55:52.333Z,1118.47
2022-07-29T04:56:52.295Z,1118.47
2022-07-29T04:57:52.294Z,1118.52
2022-07-29T04:58:52.291Z,1118.55
2022-07-29T04:59:52.300Z,1118.64
2022-07-29T05:00:52.323Z,1118.71
2022-07-29T05:01:52.422Z,1118.76
2022-07-29T05:02:52.350Z,1118.82
2022-07-29T05:03:53.953Z,1118.88
2022-07-29T05:04:52.305Z,1119.04
2022-07-29T05:05:52.330Z,1119.07
2022-07-29T05:06:52.455Z,1119.1
2022-07-29T05:07:52.333Z,1119.02
2022-07-29T05:08:52.311Z,1118.88
2022-07-29T05:09:52.322Z,1118.74
2022-07-29T05:10:52.341Z,1118.43
2022-07-29T05:11:52.317Z,1118.18
2022-07-29T05:12:52.431Z,1117.98
2022-07-29T05:13:52.320Z,1117.76
2022-07-29T05:14:52.324Z,1117.55
2022-07-29T05:15:52.418Z,1117.43
2022-07-29T05:16:52.326Z,1117.19
2022-07-29T05:17:52.327Z,1117.11
2022-07-29T05:18:52.333Z,1116.9
2022-07-29T05:19:52.354Z,1116.85
2022-07-29T05:20:52.357Z,1116.69
2022-07-29T05:21:52.352Z,1116.48
2022-07-29T05:22:52.343Z,1116.23
2022-07-29T05:23:55.217Z,1116.04
2022-07-29T05:24:52.344Z,1115.91
2022-07-29T05:25:52.606Z,1115.84
2022-07-29T05:26:52.344Z,1115.8
2022-07-29T05:27:52.347Z,1115.86
2022-07-29T05:28:52.393Z,1115.77
2022-07-29T05:29:52.352Z,1115.75
2022-07-29T05:30:52.372Z,1115.68
2022-07-29T05:31:52.353Z,1115.72
2022-07-29T05:32:52.358Z,1115.59
2022-07-29T05:33:52.370Z,1115.61
2022-07-29T05:34:55.136Z,1115.58
2022-07-29T05:35:52.371Z,1115.45
2022-07-29T05:36:52.363Z,1115.47
2022-07-29T05:37:52.366Z,1115.3
2022-07-29T05:38:52.367Z,1115.2
2022-07-29T05:39:56.432Z,1114.83
2022-07-29T05:40:52.370Z,1114.76
2022-07-29T05:41:52.373Z,1114.5
2022-07-29T05:42:52.392Z,1114.14
2022-07-29T05:43:52.375Z,1113.81
2022-07-29T05:44:52.405Z,1113.57
2022-07-29T05:45:52.431Z,1113.32
2022-07-29T05:46:52.379Z,1113.06
2022-07-29T05:47:52.385Z,1112.53
2022-07-29T05:48:52.417Z,1111.98
2022-07-29T05:49:52.384Z,1111.14
2022-07-29T05:50:52.386Z,1110.52
2022-07-29T05:51:52.393Z,1109.87
2022-07-29T05:52:52.391Z,1109.24
2022-07-29T05:53:52.405Z,1108.3
2022-07-29T05:54:52.395Z,1107.56
2022-07-29T05:55:52.396Z,1106.51
2022-07-29T05:56:52.399Z,1105.72
2022-07-29T05:57:52.402Z,1104.74
2022-07-29T05:58:52.403Z,1103.68
2022-07-29T05:59:52.404Z,1102.79
2022-07-29T06:00:52.414Z,1101.5
2022-07-29T06:01:52.458Z,1100.09
2022-07-29T06:02:52.412Z,1098.79
2022-07-29T06:03:52.412Z,1097.51
2022-07-29T06:04:52.423Z,1096.17
2022-07-29T06:05:52.416Z,1094.75
2022-07-29T06:06:55.216Z,1093.46
2022-07-29T06:07:52.420Z,1092.08
2022-07-29T06:08:52.422Z,1090.67
2022-07-29T06:09:52.422Z,1089.04
2022-07-29T06:10:52.429Z,1087.44
2022-07-29T06:11:52.424Z,1085.78
2022-07-29T06:12:52.427Z,1084.27
2022-07-29T06:13:52.434Z,1082.5
2022-07-29T06:14:54.277Z,1080.56
2022-07-29T06:15:52.538Z,1078.65
2022-07-29T06:16:52.524Z,1076.6
2022-07-29T06:17:58.883Z,1074.81
2022-07-29T06:18:52.439Z,1072.97
2022-07-29T06:19:52.441Z,1071.55
2022-07-29T06:20:52.444Z,1069.86
2022-07-29T06:21:52.445Z,1068.18
2022-07-29T06:22:52.453Z,1066.03
2022-07-29T06:23:52.445Z,1063.34
2022-07-29T06:24:52.473Z,1057.44
2022-07-29T06:25:52.449Z,1047.52
2022-07-29T06:26:52.455Z,1036.78
2022-07-29T06:27:52.454Z,1027.39
2022-07-29T06:28:55.524Z,1018.65
2022-07-29T06:29:52.459Z,1009.96
2022-07-29T06:30:52.583Z,1000.82
2022-07-29T06:31:52.460Z,991.81
2022-07-29T06:32:52.469Z,983.91
2022-07-29T06:33:52.576Z,976.51
2022-07-29T06:34:52.472Z,970.47
2022-07-29T06:35:55.051Z,963.04
2022-07-29T06:36:53.751Z,954.69
2022-07-29T06:37:53.886Z,945.46
2022-07-29T06:38:53.756Z,936.73
2022-07-29T06:39:59.292Z,928.95
2022-07-29T06:40:53.757Z,922.02
2022-07-29T06:41:53.759Z,916.84
2022-07-29T06:42:53.761Z,911.9
2022-07-29T06:43:54.428Z,906.8
2022-07-29T06:44:53.770Z,901.72
2022-07-29T06:45:53.831Z,895.1
2022-07-29T06:46:53.768Z,889.72
2022-07-29T06:47:53.768Z,884.02
2022-07-29T06:48:53.876Z,877.57
2022-07-29T06:49:53.774Z,870.74
2022-07-29T06:50:56.540Z,863.46
2022-07-29T06:51:53.782Z,856.91
2022-07-29T06:52:53.780Z,853.29
2022-07-29T06:53:58.464Z,845.63
2022-07-29T06:54:53.799Z,839.25
2022-07-29T06:55:53.789Z,834.41
2022-07-29T06:56:53.787Z,830.44
2022-07-29T06:57:53.789Z,826.65
2022-07-29T06:58:53.792Z,824.13
2022-07-29T06:59:53.793Z,821.1
2022-07-29T07:00:53.842Z,817.94
2022-07-29T07:01:56.865Z,814.38
2022-07-29T07:02:53.872Z,808.86
2022-07-29T07:03:53.798Z,803.61
2022-07-29T07:04:53.804Z,798.98
2022-07-29T07:05:53.804Z,791.58
2022-07-29T07:06:53.808Z,784.37
2022-07-29T07:07:53.808Z,779.37
2022-07-29T07:08:53.809Z,776.63
2022-07-29T07:09:53.811Z,770.65
2022-07-29T07:10:53.813Z,767.37
2022-07-29T07:11:53.840Z,765.04
2022-07-29T07:12:53.818Z,766.31
2022-07-29T07:13:53.825Z,767.38
2022-07-29T07:14:53.823Z,769.51
2022-07-29T07:15:53.826Z,767.32
2022-07-29T07:16:53.892Z,766.24
2022-07-29T07:17:53.829Z,765.81
2022-07-29T07:18:53.848Z,766.25
2022-07-29T07:19:53.834Z,767.01
2022-07-29T07:20:53.834Z,764.22
2022-07-29T07:21:53.860Z,760.42
2022-07-29T07:22:53.838Z,757.14
2022-07-29T07:23:53.842Z,755.88
2022-07-29T07:24:53.842Z,755.1
2022-07-29T07:25:53.842Z,753.49
2022-07-29T07:26:53.866Z,751.09
2022-07-29T07:27:53.849Z,749.26
2022-07-29T07:28:53.851Z,746.85
2022-07-29T07:29:53.855Z,742.3
2022-07-29T07:30:53.850Z,737.62
2022-07-29T07:31:57.547Z,734.68
2022-07-29T07:32:53.854Z,729.98
2022-07-29T07:33:53.863Z,725.45
2022-07-29T07:34:53.860Z,727.5
2022-07-29T07:35:53.866Z,728.69
2022-07-29T07:36:53.896Z,729.82
2022-07-29T07:37:53.864Z,731.57
2022-07-29T07:38:53.867Z,734.31
2022-07-29T07:39:53.884Z,739.12
2022-07-29T07:40:53.873Z,745.55
2022-07-29T07:41:53.896Z,753.11
2022-07-29T07:42:53.883Z,760.67
2022-07-29T07:43:53.878Z,766.42
2022-07-29T07:45:12.375Z,771.24
2022-07-29T07:45:53.983Z,777.91
2022-07-29T07:46:54.549Z,784.47
2022-07-29T07:47:53.885Z,788.54
2022-07-29T07:48:54.024Z,787.65
2022-07-29T07:49:53.891Z,790.46
2022-07-29T07:50:53.891Z,795.56
2022-07-29T07:51:53.916Z,800.87
2022-07-29T07:52:53.930Z,804.69
2022-07-29T07:53:53.900Z,806.13
2022-07-29T07:54:54.054Z,807.89
2022-07-29T07:56:09.736Z,810.85
2022-07-29T07:56:53.928Z,813.88
2022-07-29T07:57:53.904Z,817.05
2022-07-29T07:58:53.909Z,819.48
2022-07-29T07:59:53.907Z,821.07
2022-07-29T08:00:53.963Z,821.07
2022-07-29T08:01:55.317Z,820.8
2022-07-29T08:02:53.990Z,824.22
2022-07-29T08:03:53.915Z,822.66
2022-07-29T08:04:53.919Z,816.67
2022-07-29T08:05:53.920Z,818.36
2022-07-29T08:06:53.954Z,820.77
2022-07-29T08:07:53.921Z,823.2
2022-07-29T08:08:56.386Z,824.2
2022-07-29T08:09:53.929Z,824.76
2022-07-29T08:10:53.937Z,827.16
2022-07-29T08:11:53.967Z,825.32
2022-07-29T08:12:53.934Z,819.47
2022-07-29T08:13:53.935Z,812.84
2022-07-29T08:14:53.940Z,813.14
2022-07-29T08:15:53.941Z,811.96
2022-07-29T08:16:54.036Z,811.24
2022-07-29T08:17:53.964Z,808.46
2022-07-29T08:18:53.943Z,806.54
2022-07-29T08:19:53.957Z,805.96
2022-07-29T08:20:53.951Z,801.57
2022-07-29T08:21:54.149Z,801.71
2022-07-29T08:22:54.017Z,801.13
2022-07-29T08:23:59.846Z,800.22
2022-07-29T08:24:54.103Z,798.91
2022-07-29T08:25:54.753Z,794.9
2022-07-29T08:26:54.006Z,792.55
2022-07-29T08:27:53.962Z,792.68
2022-07-29T08:28:53.964Z,790.58
2022-07-29T08:29:53.965Z,783.68
2022-07-29T08:30:53.970Z,777.16
2022-07-29T08:31:54.414Z,770.54
2022-07-29T08:32:54.947Z,764.18
2022-07-29T08:33:53.980Z,756.19
2022-07-29T08:34:53.975Z,747.85
2022-07-29T08:35:53.979Z,738.89
2022-07-29T08:36:54.007Z,730.01
2022-07-29T08:37:53.986Z,720.42
2022-07-29T08:38:53.990Z,712.22
2022-07-29T08:39:53.986Z,704.53
2022-07-29T08:40:53.989Z,698.66
2022-07-29T08:41:57.052Z,691.19
2022-07-29T08:42:53.990Z,682.66
2022-07-29T08:43:53.996Z,674.23
2022-07-29T08:44:53.997Z,665.89
2022-07-29T08:45:54.026Z,660.44
2022-07-29T08:46:54.024Z,656.24
2022-07-29T08:47:54.001Z,649.7
2022-07-29T08:48:54.083Z,643.43
2022-07-29T08:49:54.007Z,645.08
2022-07-29T08:50:54.008Z,647.92
2022-07-29T08:51:54.235Z,647.39
2022-07-29T08:52:57.976Z,649.87
2022-07-29T08:53:54.012Z,651.08
2022-07-29T08:54:54.016Z,648.26
2022-07-29T08:55:57.048Z,644.02
2022-07-29T08:56:54.871Z,641.85
2022-07-29T08:57:54.298Z,638.64
2022-07-29T08:58:54.026Z,633.95
2022-07-29T08:59:54.025Z,629.26
2022-07-29T09:00:54.151Z,627.24
2022-07-29T09:01:54.421Z,628.94
2022-07-29T09:02:54.028Z,626.01
2022-07-29T09:03:54.056Z,623.81
2022-07-29T09:04:54.034Z,623.04
2022-07-29T09:05:54.038Z,622.34
2022-07-29T09:06:55.833Z,622.49
2022-07-29T09:07:54.040Z,628.86
2022-07-29T09:08:54.052Z,634.45
2022-07-29T09:09:54.042Z,640.88
2022-07-29T09:10:54.044Z,647.67
2022-07-29T09:11:54.266Z,654.39
2022-07-29T09:12:54.051Z,658.24
2022-07-29T09:13:54.049Z,657.53
2022-07-29T09:14:54.057Z,651.54
2022-07-29T09:15:54.056Z,644.28
2022-07-29T09:16:54.496Z,639.31
2022-07-29T09:17:56.936Z,641.25
2022-07-29T09:18:54.059Z,644.04
2022-07-29T09:19:54.061Z,646.58
2022-07-29T09:20:54.068Z,650.48
2022-07-29T09:21:54.068Z,654.34
2022-07-29T09:22:54.071Z,656.65
2022-07-29T09:23:54.075Z,658.23
2022-07-29T09:24:54.071Z,659.81
2022-07-29T09:25:54.075Z,660.87
2022-07-29T09:26:54.345Z,662.62
2022-07-29T09:27:54.083Z,663.67
2022-07-29T09:28:57.229Z,666.41
2022-07-29T09:29:54.092Z,666.45
2022-07-29T09:30:54.087Z,662.44
2022-07-29T09:31:54.188Z,661.01
2022-07-29T09:32:54.088Z,654.52
2022-07-29T09:33:54.094Z,650.08
2022-07-29T09:34:58.233Z,644.36
2022-07-29T09:35:56.333Z,639.73
2022-07-29T09:36:54.322Z,640.25
2022-07-29T09:37:54.104Z,640.97
2022-07-29T09:38:54.102Z,644.23
2022-07-29T09:39:54.103Z,647.75
2022-07-29T09:40:54.109Z,651.31
2022-07-29T09:41:54.112Z,655
2022-07-29T09:42:54.110Z,658
2022-07-29T09:43:54.124Z,661.15
2022-07-29T09:44:54.111Z,665.68
2022-07-29T09:45:54.113Z,670.03
2022-07-29T09:46:54.418Z,673.87
2022-07-29T09:47:54.121Z,678.85
2022-07-29T09:48:54.165Z,682.96
2022-07-29T09:49:54.125Z,685.71
2022-07-29T09:50:54.124Z,688.09
2022-07-29T09:51:54.124Z,688.98
2022-07-29T09:52:54.175Z,682.99
2022-07-29T09:53:54.130Z,679.24
2022-07-29T09:54:54.132Z,675.44
2022-07-29T09:55:54.135Z,673.69
2022-07-29T09:56:54.419Z,678.37
2022-07-29T09:57:54.139Z,682.5
2022-07-29T09:58:54.178Z,685.76
2022-07-29T09:59:54.148Z,689.17
2022-07-29T10:00:54.222Z,692.22
2022-07-29T10:01:54.488Z,696.26
2022-07-29T10:02:54.248Z,698.79
2022-07-29T10:03:54.153Z,701.99
2022-07-29T10:04:54.153Z,704.98
2022-07-29T10:05:54.153Z,708.01
2022-07-29T10:06:54.155Z,710.61
2022-07-29T10:07:54.470Z,713.43
2022-07-29T10:08:54.160Z,715.41
2022-07-29T10:09:54.161Z,718.04
2022-07-29T10:10:54.202Z,720.03
2022-07-29T10:11:54.166Z,718.55
2022-07-29T10:12:54.189Z,718.35
2022-07-29T10:13:54.168Z,715.39
2022-07-29T10:14:54.173Z,715.41
2022-07-29T10:15:54.185Z,713.07
2022-07-29T10:16:54.192Z,710.23
2022-07-29T10:17:54.219Z,707.57
2022-07-29T10:18:54.188Z,706.77
2022-07-29T10:19:54.183Z,705.42
2022-07-29T10:20:54.186Z,702.08
2022-07-29T10:21:57.977Z,698.06
2022-07-29T10:22:54.525Z,697.73
2022-07-29T10:23:54.193Z,697.08
2022-07-29T10:24:54.191Z,696.36
2022-07-29T10:25:54.194Z,696.38
2022-07-29T10:26:54.197Z,694.87
2022-07-29T10:27:54.225Z,693.68
2022-07-29T10:28:54.198Z,692.65
2022-07-29T10:29:54.207Z,691.31
2022-07-29T10:30:54.211Z,690.93
2022-07-29T10:31:54.389Z,689.36
2022-07-29T10:32:54.524Z,689.51
2022-07-29T10:33:54.219Z,687.32
2022-07-29T10:34:54.220Z,686.62
2022-07-29T10:35:54.212Z,681.65
2022-07-29T10:36:54.217Z,671.23
2022-07-29T10:37:54.238Z,667.23
2022-07-29T10:38:54.218Z,667.06
2022-07-29T10:39:54.222Z,666.5
2022-07-29T10:40:54.946Z,666.16
2022-07-29T10:41:54.477Z,663.17
2022-07-29T10:42:54.246Z,652.25
2022-07-29T10:43:54.227Z,642.66
2022-07-29T10:44:54.232Z,638.54
2022-07-29T10:45:54.230Z,629.49
2022-07-29T10:46:54.271Z,621.7
2022-07-29T10:47:54.267Z,614.52
2022-07-29T10:48:54.304Z,605.33
2022-07-29T10:49:54.248Z,594.34
2022-07-29T10:50:54.245Z,582.69
2022-07-29T10:51:54.450Z,571.4
2022-07-29T10:52:54.285Z,563.39
2022-07-29T10:53:54.256Z,554.28
2022-07-29T10:54:54.246Z,543.6
2022-07-29T10:55:54.254Z,534.35
2022-07-29T10:56:54.254Z,526.22
2022-07-29T10:57:54.852Z,524.85
2022-07-29T10:58:54.258Z,523.42
2022-07-29T10:59:54.260Z,522.25
2022-07-29T11:00:54.266Z,510.42
2022-07-29T11:01:58.535Z,501.55
2022-07-29T11:02:54.437Z,496.31
2022-07-29T11:08:03.087Z,481.96
2022-07-29T11:09:03.074Z,481.36
2022-07-29T11:10:03.072Z,479.9
2022-07-29T11:11:03.073Z,477.84
2022-07-29T11:12:03.153Z,475.55
2022-07-29T11:13:06.912Z,476.75
2022-07-29T11:14:03.087Z,483.94
2022-07-29T11:15:03.092Z,489.89
2022-07-29T11:16:03.102Z,494.55
2022-07-29T11:17:03.088Z,501.24
2022-07-29T11:18:03.094Z,507.54
2022-07-29T11:19:03.093Z,515.13
2022-07-29T11:20:03.090Z,520.94
2022-07-29T11:21:03.095Z,526.52
2022-07-29T11:22:03.170Z,532.45
2022-07-29T11:23:03.097Z,537.34
2022-07-29T11:24:06.207Z,540.5
2022-07-29T11:25:03.130Z,542.64
2022-07-29T11:26:03.107Z,537.96
2022-07-29T11:27:03.242Z,532.45
2022-07-29T11:28:03.110Z,529.29
2022-07-29T11:29:03.136Z,528.33
2022-07-29T11:30:03.279Z,529.27
2022-07-29T11:31:03.115Z,528.08
2022-07-29T11:32:03.119Z,523.12
2022-07-29T11:33:03.145Z,517.13
2022-07-29T11:34:05.641Z,512.75
2022-07-29T11:35:03.121Z,510.39
2022-07-29T11:36:03.800Z,510.15
2022-07-29T11:37:03.787Z,505.93
2022-07-29T11:38:03.794Z,499.05
2022-07-29T11:39:03.791Z,488.05
2022-07-29T11:40:03.790Z,479.27
2022-07-29T11:41:03.792Z,468.28
2022-07-29T11:42:05.181Z,456.65
2022-07-29T11:43:07.301Z,451.83
2022-07-29T12:07:18.537Z,377.2
2022-07-29T12:08:18.519Z,374.31
2022-07-29T12:09:18.521Z,372.54
2022-07-29T12:10:19.647Z,371.6
2022-07-29T12:11:20.333Z,374.01
2022-07-29T12:12:18.552Z,378.87
2022-07-29T12:13:18.533Z,385.21
2022-07-29T12:14:18.531Z,385.64
2022-07-29T12:15:18.534Z,384.12
2022-07-29T12:16:25.276Z,380.37
2022-07-29T12:17:18.568Z,374.19
2022-07-29T12:18:18.637Z,369.98
2022-07-29T12:19:18.546Z,364.45
2022-07-29T12:20:18.549Z,359.54
2022-07-29T12:21:18.547Z,351.45
2022-07-29T12:22:18.574Z,346.29
2022-07-29T12:23:18.940Z,340.46
2022-07-29T12:24:18.555Z,335.72
2022-07-29T12:25:32.769Z,331.39
2022-07-29T12:26:21.679Z,327.97
2022-07-29T12:27:18.581Z,327.97
2022-07-29T12:28:18.605Z,329.05
2022-07-29T12:29:20.031Z,327
2022-07-29T12:30:18.687Z,323.58
2022-07-29T12:31:41.781Z,320.14
2022-07-29T12:32:19.439Z,316.98
2022-07-29T12:33:18.573Z,316.12
2022-07-29T12:34:18.570Z,316.35
2022-07-29T12:35:18.578Z,320.22
2022-07-29T12:36:18.587Z,324.59
2022-07-29T12:37:18.607Z,326.86
2022-07-29T12:38:18.581Z,328.9
2022-07-29T12:39:18.580Z,332.31
2022-07-29T12:40:18.584Z,339.34
2022-07-29T12:41:21.699Z,349.2
2022-07-29T12:42:18.992Z,360.41
2022-07-29T12:43:18.590Z,369.94
2022-07-29T12:44:18.591Z,375.87
2022-07-29T12:45:18.597Z,378.27
2022-07-29T12:46:18.620Z,376.72